ADDS METAR Data INFO
IDs: Format: Raw Decoded Include TAF

Data at: 1414 UTC 12 Dec 2017

KGLD 121353Z AUTO 26010KT 10SM CLR M03/M12 A3032 RMK AO2 SLP287 T10281122
KGLD 121253Z AUTO 26010KT 10SM CLR M04/M12 A3033 RMK AO2 SLP290 T10441122
KGLD 121153Z AUTO 26008KT 10SM CLR M06/M13 A3035 RMK AO2 SLP293 T10611128 11033 21072 58019
KGLD 121053Z AUTO 25009KT 10SM CLR M06/M12 A3037 RMK AO2 SLP299 T10611122
KGLD 120953Z AUTO 25009KT 10SM CLR M07/M12 A3040 RMK AO2 SLP307 T10671122
KGLD 120853Z AUTO 25007KT 10SM CLR M06/M11 A3041 RMK AO2 SLP307 T10611111 58002
KGLD 120753Z AUTO 25008KT 10SM CLR M06/M10 A3041 RMK AO2 SLP308 T10561100
KGLD 120653Z AUTO 28006KT 10SM CLR M06/M10 A3042 RMK AO2 SLP309 T10561100 401441072
KGLD 120553Z AUTO 36009KT 10SM CLR M03/M09 A3042 RMK AO2 SLP306 T10331089 10089 21072 51005
KGLD 120453Z AUTO 35009KT 10SM CLR M07/M12 A3042 RMK AO2 SLP313 T10671117
KGLD 120353Z AUTO 33005KT 10SM CLR M05/M12 A3041 RMK AO2 SLP314 T10501117
KGLD 120253Z AUTO 36009KT 10SM CLR 00/M12 A3040 RMK AO2 SLP309 T00001117 51028
KGLD 120153Z AUTO 35005KT 10SM OVC110 04/M12 A3038 RMK AO2 SLP301 T00391117
KGLD 120053Z AUTO 02008KT 10SM OVC120 04/M13 A3035 RMK AO2 SLP291 T00391128
KGLD 112353Z AUTO 36017G24KT 10SM CLR 09/M14 A3031 RMK AO2 PK WND 34027/2324 SLP268 T00891139 10144 20089 53016
KGLD 112253Z AUTO 34018G31KT 10SM CLR 11/M13 A3029 RMK AO2 PK WND 35036/2241 SLP259 T01111133
KGLD 112153Z AUTO 34024G39KT 10SM CLR 12/M14 A3027 RMK AO2 PK WND 36046/2105 SLP252 T01221139
KGLD 112053Z AUTO 35028G43KT 10SM CLR 14/M15 A3025 RMK AO2 PK WND 33046/2009 SLP246 T01391150 55003
KGLD 111953Z AUTO 34028G41KT 10SM CLR 14/M13 A3024 RMK AO2 PK WND 34043/1935 SLP240 T01441128
KGLD 111853Z AUTO 35033G43KT 10SM CLR 14/M11 A3024 RMK AO2 PK WND 34043/1848 SLP242 T01391111
KGLD 111753Z AUTO 34027G38KT 10SM CLR 13/M12 A3026 RMK AO2 PK WND 34039/1730 SLP249 T01331117 10133 20006 50000
KGLD 111653Z AUTO 34025G35KT 10SM CLR 12/M11 A3026 RMK AO2 PK WND 34035/1653 SLP252 T01221111
KGLD 111553Z AUTO 33016G23KT 10SM CLR 09/M12 A3027 RMK AO2 SLP255 T00941122
KGLD 111453Z AUTO 32012KT 10SM CLR 04/M14 A3026 RMK AO2 SLP258 T00391144 51008
KGLD 111353Z AUTO 30013KT 10SM CLR 02/M15 A3025 RMK AO2 SLP259 T00171150
KGLD 111253Z AUTO 30013KT 10SM CLR 01/M16 A3025 RMK AO2 SLP256 T00111156
KGLD 111153Z AUTO 29014KT 10SM CLR 02/M16 A3023 RMK AO2 SLP250 T00171161 10022 21011 57002
KGLD 111053Z AUTO 29014KT 10SM CLR 01/M17 A3024 RMK AO2 SLP240 T00061167
KGLD 110953Z AUTO 29011KT 10SM CLR 01/M16 A3024 RMK AO2 SLP233 T00111161
KGLD 110853Z AUTO 28011KT 10SM CLR M01/M17 A3024 RMK AO2 SLP236 T10111167 55006
KGLD 110753Z AUTO 27006KT 10SM CLR M01/M17 A3024 RMK AO2 SLP234 T10111167
KGLD 110653Z AUTO 27012KT 10SM CLR 00/M17 A3024 RMK AO2 SLP235 T00001167 401721011
KGLD 110553Z AUTO 29010KT 10SM CLR M01/M17 A3026 RMK AO2 SLP249 T10061167 10044 21011 50001
KGLD 110453Z AUTO 28009KT 10SM CLR M01/M17 A3027 RMK AO2 SLP252 T10061167
KGLD 110353Z AUTO 26010KT 10SM CLR 02/M17 A3026 RMK AO2 SLP251 T00221167
KGLD 110253Z AUTO 25011KT 10SM CLR 03/M17 A3026 RMK AO2 SLP257 T00281172 55004